Time;durP1;ratioP1;P1;durP2;ratioP2;P2;SDS_P1;SDS_P2;PMS_P1;PMS_P2;Temp;Humidity;BMP_temperature;BMP_pressure;BME280_temperature;BME280_humidity;BME280_pressure;Samples;Min_cycle;Max_cycle;Signal;HPM_P1;HPM_P2
2023/10/25 00:02:06;;;;;;;3.30;3.20;;;;;;;;;;5084172;28;20195;-70
2023/10/25 00:04:33;;;;;;;4.78;3.65;;;;;;;;;;5080847;28;20216;-69
2023/10/25 00:06:59;;;;;;;4.18;3.97;;;;;;;;;;5081770;28;20201;-70
2023/10/25 00:09:25;;;;;;;7.35;3.67;;;;;;;;;;5085265;28;20187;-69
2023/10/25 00:11:54;;;;;;;4.18;3.63;;;;;;;;;;5084965;28;20203;-70
2023/10/25 00:14:20;;;;;;;7.05;3.95;;;;;;;;;;5081494;28;20255;-69
2023/10/25 00:16:46;;;;;;;4.55;4.22;;;;;;;;;;5081555;28;20224;-69
2023/10/25 00:19:12;;;;;;;4.18;3.92;;;;;;;;;;5082923;28;20216;-69
2023/10/25 00:21:39;;;;;;;4.55;4.15;;;;;;;;;;5085020;28;20203;-69
2023/10/25 00:24:05;;;;;;;4.20;3.78;;;;;;;;;;5083929;28;20227;-69
2023/10/25 00:26:31;;;;;;;3.80;3.60;;;;;;;;;;5081553;28;20192;-69
2023/10/25 00:28:59;;;;;;;4.28;3.78;;;;;;;;;;5081079;28;20687;-69
2023/10/25 00:31:25;;;;;;;4.93;4.50;;;;;;;;;;5084765;28;20199;-70
2023/10/25 00:33:52;;;;;;;5.43;4.93;;;;;;;;;;5084541;28;20203;-69
2023/10/25 00:36:18;;;;;;;4.78;4.47;;;;;;;;;;5081962;28;20200;-70
2023/10/25 00:38:45;;;;;;;4.95;4.50;;;;;;;;;;5080937;28;20281;-70
2023/10/25 00:41:11;;;;;;;4.90;4.47;;;;;;;;;;5082300;28;20296;-70
2023/10/25 00:43:37;;;;;;;6.18;5.50;;;;;;;;;;5084317;28;20211;-70
2023/10/25 00:46:10;;;;;;;5.50;5.15;;;;;;;;;;5083570;28;20243;-69
2023/10/25 00:48:36;;;;;;;5.05;4.82;;;;;;;;;;5081423;28;20219;-70
2023/10/25 00:51:03;;;;;;;5.57;5.05;;;;;;;;;;5081440;28;20208;-70
2023/10/25 00:53:32;;;;;;;5.30;4.90;;;;;;;;;;5073529;28;20204;-69
2023/10/25 00:55:58;;;;;;;5.18;4.82;;;;;;;;;;5088433;28;20231;-69
2023/10/25 00:58:25;;;;;;;5.50;5.15;;;;;;;;;;5081079;28;20232;-69
2023/10/25 01:00:52;;;;;;;5.22;4.85;;;;;;;;;;5080452;28;20676;-69
2023/10/25 01:03:20;;;;;;;6.15;5.72;;;;;;;;;;5082789;28;20204;-69
2023/10/25 01:05:47;;;;;;;4.88;4.68;;;;;;;;;;5083514;28;20615;-69
2023/10/25 01:08:17;;;;;;;5.70;5.30;;;;;;;;;;5082533;28;20587;-69
2023/10/25 01:10:43;;;;;;;5.30;4.90;;;;;;;;;;5080572;28;20580;-70
2023/10/25 01:13:09;;;;;;;7.32;4.63;;;;;;;;;;5081051;28;20219;-70
2023/10/25 01:15:36;;;;;;;5.75;5.43;;;;;;;;;;5083790;28;20220;-70
2023/10/25 01:18:02;;;;;;;5.50;5.07;;;;;;;;;;5083750;28;20210;-69
2023/10/25 01:20:31;;;;;;;5.70;5.35;;;;;;;;;;5080536;28;20213;-70
2023/10/25 01:22:58;;;;;;;5.20;4.90;;;;;;;;;;5080569;28;20197;-69
2023/10/25 01:25:25;;;;;;;6.43;5.95;;;;;;;;;;5082660;28;20747;-71
2023/10/25 01:27:51;;;;;;;6.75;6.05;;;;;;;;;;5083466;28;20196;-69
2023/10/25 01:30:17;;;;;;;6.18;5.68;;;;;;;;;;5082114;28;20195;-69
2023/10/25 01:32:44;;;;;;;6.13;5.63;;;;;;;;;;5080576;28;20227;-69
2023/10/25 01:35:10;;;;;;;9.50;5.65;;;;;;;;;;5080477;28;20224;-69
2023/10/25 01:37:36;;;;;;;5.70;5.20;;;;;;;;;;5084579;28;20464;-70
2023/10/25 01:40:05;;;;;;;6.40;5.45;;;;;;;;;;5085196;28;20243;-70
2023/10/25 01:42:31;;;;;;;6.18;5.75;;;;;;;;;;5081666;28;20230;-70
2023/10/25 01:44:57;;;;;;;6.57;6.03;;;;;;;;;;5082443;28;20224;-70
2023/10/25 01:47:24;;;;;;;6.95;6.43;;;;;;;;;;5093021;28;20211;-70
2023/10/25 01:49:50;;;;;;;6.07;5.57;;;;;;;;;;5082220;28;20203;-70
2023/10/25 01:52:16;;;;;;;6.07;5.68;;;;;;;;;;5081278;28;20204;-71
2023/10/25 01:54:45;;;;;;;6.05;5.55;;;;;;;;;;5082760;28;20220;-70
2023/10/25 01:57:12;;;;;;;5.60;5.30;;;;;;;;;;5082993;28;20199;-70
2023/10/25 01:59:40;;;;;;;6.32;5.72;;;;;;;;;;5075673;28;20219;-70
2023/10/25 02:02:06;;;;;;;5.85;5.50;;;;;;;;;;5083347;28;20199;-70
2023/10/25 02:04:33;;;;;;;8.45;5.10;;;;;;;;;;5079478;28;20216;-70
2023/10/25 02:06:59;;;;;;;5.35;4.93;;;;;;;;;;5079756;28;20201;-70
2023/10/25 02:09:26;;;;;;;6.18;4.93;;;;;;;;;;5081734;28;20235;-70
2023/10/25 02:11:52;;;;;;;5.35;4.95;;;;;;;;;;5085956;28;20305;-70
2023/10/25 02:14:20;;;;;;;5.68;5.35;;;;;;;;;;5080667;28;20228;-70
2023/10/25 02:16:46;;;;;;;9.48;5.68;;;;;;;;;;5083073;28;20212;-70
2023/10/25 02:19:12;;;;;;;6.82;6.07;;;;;;;;;;5082395;28;20691;-70
2023/10/25 02:21:38;;;;;;;6.25;5.78;;;;;;;;;;5079450;28;20208;-70
2023/10/25 02:24:05;;;;;;;6.57;6.07;;;;;;;;;;5079233;28;20227;-70
2023/10/25 02:26:32;;;;;;;6.55;5.95;;;;;;;;;;5079567;28;20209;-70
2023/10/25 02:28:58;;;;;;;8.05;7.45;;;;;;;;;;5082310;28;20197;-70
2023/10/25 02:31:26;;;;;;;7.53;6.93;;;;;;;;;;5085065;28;20227;-70
2023/10/25 02:33:52;;;;;;;6.65;6.13;;;;;;;;;;5086517;28;20200;-69
2023/10/25 02:36:18;;;;;;;8.68;7.50;;;;;;;;;;5086382;28;20199;-70
2023/10/25 02:38:47;;;;;;;8.48;7.75;;;;;;;;;;5086525;28;20200;-70
2023/10/25 02:41:13;;;;;;;8.65;7.70;;;;;;;;;;5086351;28;20210;-69
2023/10/25 02:43:39;;;;;;;8.70;7.80;;;;;;;;;;5083136;28;20197;-70
2023/10/25 02:46:08;;;;;;;9.65;7.95;;;;;;;;;;5082877;28;20200;-70
2023/10/25 02:48:36;;;;;;;9.90;8.68;;;;;;;;;;5085604;28;20211;-70
2023/10/25 02:51:03;;;;;;;15.18;7.75;;;;;;;;;;5086173;28;20196;-70
2023/10/25 02:53:30;;;;;;;25.40;9.85;;;;;;;;;;5083817;28;20203;-70
2023/10/25 02:55:58;;;;;;;10.02;8.75;;;;;;;;;;5082371;28;20591;-70
2023/10/25 02:58:25;;;;;;;10.70;8.60;;;;;;;;;;5084113;28;20196;-70
2023/10/25 03:00:51;;;;;;;13.23;9.05;;;;;;;;;;5086136;28;20219;-70
2023/10/25 03:03:17;;;;;;;18.30;10.02;;;;;;;;;;5085788;28;20199;-70
2023/10/25 03:05:45;;;;;;;11.18;9.98;;;;;;;;;;5082421;28;20707;-70
2023/10/25 03:08:11;;;;;;;24.80;11.80;;;;;;;;;;5083003;28;20200;-69
2023/10/25 03:10:37;;;;;;;23.67;10.93;;;;;;;;;;5085538;28;20192;-69
2023/10/25 03:13:03;;;;;;;134.98;12.82;;;;;;;;;;5086065;28;20195;-69
2023/10/25 03:15:30;;;;;;;56.08;10.65;;;;;;;;;;5083660;28;20218;-70
2023/10/25 03:17:56;;;;;;;14.80;8.88;;;;;;;;;;5088182;28;20555;-70
2023/10/25 03:20:23;;;;;;;19.45;7.35;;;;;;;;;;5084470;28;20223;-70
2023/10/25 03:22:50;;;;;;;12.57;6.90;;;;;;;;;;5082482;28;20197;-70
2023/10/25 03:25:17;;;;;;;7.03;6.30;;;;;;;;;;5082082;28;20217;-70
2023/10/25 03:27:43;;;;;;;11.75;6.80;;;;;;;;;;5085998;28;20223;-69
2023/10/25 03:30:10;;;;;;;7.40;6.57;;;;;;;;;;5085820;28;20188;-70
2023/10/25 03:32:36;;;;;;;18.30;7.45;;;;;;;;;;5085644;28;20201;-70
2023/10/25 03:35:02;;;;;;;9.02;6.43;;;;;;;;;;5085090;28;20603;-70
2023/10/25 03:37:28;;;;;;;15.95;7.53;;;;;;;;;;5083872;28;20199;-70
2023/10/25 03:39:56;;;;;;;36.42;8.02;;;;;;;;;;5081308;28;20593;-70
2023/10/25 03:42:22;;;;;;;88.80;9.30;;;;;;;;;;5082792;28;20196;-70
2023/10/25 03:44:49;;;;;;;53.53;8.55;;;;;;;;;;5085020;28;20219;-70
2023/10/25 03:47:15;;;;;;;26.42;8.13;;;;;;;;;;5078258;28;20196;-70
2023/10/25 03:49:41;;;;;;;159.02;10.63;;;;;;;;;;5085090;28;20195;-70
2023/10/25 03:52:07;;;;;;;90.93;10.00;;;;;;;;;;5085312;28;20199;-70
2023/10/25 03:54:37;;;;;;;19.40;8.68;;;;;;;;;;5082407;28;20227;-70
2023/10/25 03:57:05;;;;;;;23.60;9.07;;;;;;;;;;5081842;28;20204;-70
2023/10/25 03:59:32;;;;;;;15.88;8.35;;;;;;;;;;5083159;28;20212;-70
2023/10/25 04:01:58;;;;;;;8.70;7.82;;;;;;;;;;5085248;28;20196;-70
2023/10/25 04:04:24;;;;;;;15.82;7.93;;;;;;;;;;5084192;28;20223;-70
2023/10/25 04:06:50;;;;;;;8.15;7.53;;;;;;;;;;5081464;28;20678;-70
2023/10/25 04:09:17;;;;;;;15.23;8.02;;;;;;;;;;5081467;28;20193;-70
2023/10/25 04:11:43;;;;;;;26.50;8.68;;;;;;;;;;5084423;28;20201;-70
2023/10/25 04:14:10;;;;;;;13.85;7.93;;;;;;;;;;5084606;28;20215;-70
2023/10/25 04:16:37;;;;;;;15.30;7.72;;;;;;;;;;5082268;28;20204;-70
2023/10/25 04:19:04;;;;;;;7.78;7.10;;;;;;;;;;5081058;28;20571;-70
2023/10/25 04:21:30;;;;;;;15.02;7.53;;;;;;;;;;5082348;28;20196;-70
2023/10/25 04:23:56;;;;;;;8.98;8.18;;;;;;;;;;5084661;28;20203;-70
2023/10/25 04:26:23;;;;;;;8.85;8.05;;;;;;;;;;5084334;28;20199;-70
2023/10/25 04:28:49;;;;;;;142.80;10.60;;;;;;;;;;5081242;28;20203;-70
2023/10/25 04:31:20;;;;;;;34.33;8.55;;;;;;;;;;5080996;28;20694;-70
2023/10/25 04:33:47;;;;;;;11.13;8.60;;;;;;;;;;5084288;28;20235;-70
2023/10/25 04:36:13;;;;;;;17.02;8.95;;;;;;;;;;5085661;28;20200;-70
2023/10/25 04:38:40;;;;;;;28.40;8.65;;;;;;;;;;5083243;28;20208;-70
2023/10/25 04:41:06;;;;;;;70.55;9.20;;;;;;;;;;5084342;28;20235;-70
2023/10/25 04:43:32;;;;;;;12.85;7.93;;;;;;;;;;5084245;28;20192;-70
2023/10/25 04:45:59;;;;;;;10.88;8.02;;;;;;;;;;5084036;28;20269;-70
2023/10/25 04:48:26;;;;;;;22.25;8.38;;;;;;;;;;5084227;28;20196;-70
2023/10/25 04:50:53;;;;;;;9.60;8.70;;;;;;;;;;5080430;28;20188;-70
2023/10/25 04:53:19;;;;;;;135.35;11.50;;;;;;;;;;5080570;28;20199;-70
2023/10/25 04:55:45;;;;;;;35.78;9.20;;;;;;;;;;5083009;28;20228;-70
2023/10/25 04:58:12;;;;;;;93.88;11.30;;;;;;;;;;5084082;28;20229;-70
2023/10/25 05:00:38;;;;;;;33.75;9.52;;;;;;;;;;5082257;28;20226;-70
2023/10/25 05:03:05;;;;;;;33.97;9.55;;;;;;;;;;5080501;28;20590;-70
2023/10/25 05:05:33;;;;;;;17.73;8.25;;;;;;;;;;5080746;28;20250;-70
2023/10/25 05:07:59;;;;;;;50.65;8.68;;;;;;;;;;5087687;28;20223;-70
2023/10/25 05:10:26;;;;;;;44.38;7.97;;;;;;;;;;5080575;28;20628;-70
2023/10/25 05:12:53;;;;;;;40.78;8.65;;;;;;;;;;5072225;28;20200;-70
2023/10/25 05:15:19;;;;;;;29.30;8.70;;;;;;;;;;5078749;28;20223;-70
2023/10/25 05:17:47;;;;;;;27.92;7.60;;;;;;;;;;5081207;28;20210;-70
2023/10/25 05:20:14;;;;;;;10.82;8.63;;;;;;;;;;5079171;28;20212;-70
2023/10/25 05:22:43;;;;;;;21.80;8.23;;;;;;;;;;5082720;28;20269;-70
2023/10/25 05:25:10;;;;;;;18.90;8.02;;;;;;;;;;5084082;28;20223;-70
2023/10/25 05:27:37;;;;;;;30.83;7.72;;;;;;;;;;5082644;28;20695;-70
2023/10/25 05:30:04;;;;;;;8.10;7.40;;;;;;;;;;5077607;28;20196;-70
2023/10/25 05:32:31;;;;;;;12.07;7.65;;;;;;;;;;5077499;28;20539;-70
2023/10/25 05:34:57;;;;;;;7.32;6.72;;;;;;;;;;5077407;28;20227;-70
2023/10/25 05:37:24;;;;;;;19.23;8.02;;;;;;;;;;5080319;28;20224;-62
2023/10/25 05:39:52;;;;;;;9.07;7.82;;;;;;;;;;5088428;28;20215;-62
2023/10/25 05:42:20;;;;;;;7.43;6.82;;;;;;;;;;5080389;28;20204;-62
2023/10/25 05:44:46;;;;;;;10.20;6.82;;;;;;;;;;5082612;28;20243;-62
2023/10/25 05:47:13;;;;;;;7.38;6.65;;;;;;;;;;5083936;28;20196;-62
2023/10/25 05:49:39;;;;;;;8.20;7.40;;;;;;;;;;5082487;28;20196;-62
2023/10/25 05:52:07;;;;;;;7.40;6.60;;;;;;;;;;5081150;28;20199;-62
2023/10/25 05:54:34;;;;;;;7.55;5.68;;;;;;;;;;5088088;28;20604;-63
2023/10/25 05:57:02;;;;;;;7.22;6.63;;;;;;;;;;5081551;28;20280;-62
2023/10/25 05:59:29;;;;;;;6.97;6.30;;;;;;;;;;5081108;28;20196;-62
2023/10/25 06:02:01;;;;;;;7.00;6.30;;;;;;;;;;5084564;28;20212;-61
2023/10/25 06:04:30;;;;;;;8.38;6.90;;;;;;;;;;5073919;28;20228;-61
2023/10/25 06:06:57;;;;;;;6.82;6.30;;;;;;;;;;5066506;28;20390;-63
2023/10/25 06:09:24;;;;;;;7.32;6.60;;;;;;;;;;5084019;28;20702;-61
2023/10/25 06:11:50;;;;;;;6.80;6.20;;;;;;;;;;5078389;28;20218;-58
2023/10/25 06:14:18;;;;;;;6.85;6.00;;;;;;;;;;5068043;28;20224;-60
2023/10/25 06:16:45;;;;;;;6.47;5.97;;;;;;;;;;5070360;28;20685;-61
2023/10/25 06:19:11;;;;;;;6.80;6.20;;;;;;;;;;5068052;28;20604;-62
2023/10/25 06:21:37;;;;;;;8.52;6.20;;;;;;;;;;5070048;28;20227;-63
2023/10/25 06:24:04;;;;;;;6.47;5.97;;;;;;;;;;5071918;28;20300;-64
2023/10/25 06:26:30;;;;;;;7.07;6.28;;;;;;;;;;5082672;28;20219;-62
2023/10/25 06:28:57;;;;;;;6.95;6.40;;;;;;;;;;5075613;28;20211;-64
2023/10/25 06:31:24;;;;;;;8.50;6.82;;;;;;;;;;5084889;28;20215;-62
2023/10/25 06:33:51;;;;;;;6.72;6.22;;;;;;;;;;5075101;28;20715;-61
2023/10/25 06:36:17;;;;;;;6.57;5.75;;;;;;;;;;5072943;28;20212;-62
2023/10/25 06:38:44;;;;;;;6.53;5.68;;;;;;;;;;5079866;28;20295;-60
2023/10/25 06:41:17;;;;;;;6.47;5.88;;;;;;;;;;5079197;28;20219;-61
2023/10/25 06:43:44;;;;;;;6.45;5.95;;;;;;;;;;5077233;28;20432;-61
2023/10/25 06:46:11;;;;;;;6.65;5.60;;;;;;;;;;5082659;28;20261;-60
2023/10/25 06:48:39;;;;;;;6.10;5.45;;;;;;;;;;5077946;28;20227;-61
2023/10/25 06:51:06;;;;;;;7.93;6.43;;;;;;;;;;5077802;28;20215;-60
2023/10/25 06:53:32;;;;;;;6.18;5.63;;;;;;;;;;5076869;28;20216;-61
2023/10/25 06:55:59;;;;;;;8.02;6.15;;;;;;;;;;5079206;28;20231;-60
2023/10/25 06:58:26;;;;;;;7.50;6.55;;;;;;;;;;5073409;28;20203;-60
2023/10/25 07:00:55;;;;;;;10.27;6.85;;;;;;;;;;5077986;28;20220;-60
2023/10/25 07:03:24;;;;;;;7.25;6.47;;;;;;;;;;5077376;28;20196;-61
2023/10/25 07:05:52;;;;;;;7.85;6.65;;;;;;;;;;5084404;28;20228;-61
2023/10/25 07:08:21;;;;;;;7.85;6.50;;;;;;;;;;5081273;28;20200;-61
2023/10/25 07:10:47;;;;;;;9.05;6.60;;;;;;;;;;5086259;28;20222;-61
2023/10/25 07:13:14;;;;;;;7.38;6.53;;;;;;;;;;5083671;28;20743;-61
2023/10/25 07:15:40;;;;;;;10.50;7.40;;;;;;;;;;5072634;28;20597;-61
2023/10/25 07:18:06;;;;;;;8.27;7.57;;;;;;;;;;5085564;28;20210;-62
2023/10/25 07:20:32;;;;;;;8.10;7.25;;;;;;;;;;5074599;28;20224;-62
2023/10/25 07:23:01;;;;;;;10.95;7.68;;;;;;;;;;5072872;28;20208;-62
2023/10/25 07:25:28;;;;;;;9.15;8.30;;;;;;;;;;5072174;28;20671;-62
2023/10/25 07:27:54;;;;;;;9.00;8.30;;;;;;;;;;5075251;28;20209;-62
2023/10/25 07:30:20;;;;;;;11.02;7.93;;;;;;;;;;5075502;28;20209;-62
2023/10/25 07:32:46;;;;;;;9.52;8.60;;;;;;;;;;5071493;28;20205;-61
2023/10/25 07:35:13;;;;;;;13.30;8.45;;;;;;;;;;5083960;28;20695;-62
2023/10/25 07:37:39;;;;;;;9.88;8.98;;;;;;;;;;5075980;28;20208;-63
2023/10/25 07:40:08;;;;;;;12.70;9.07;;;;;;;;;;5074855;28;20201;-61
2023/10/25 07:42:34;;;;;;;10.25;8.75;;;;;;;;;;5077458;28;20239;-62
2023/10/25 07:45:00;;;;;;;10.75;9.40;;;;;;;;;;5078663;28;20706;-62
2023/10/25 07:47:27;;;;;;;10.68;8.77;;;;;;;;;;5076138;28;20211;-60
2023/10/25 07:49:54;;;;;;;10.02;8.70;;;;;;;;;;5084266;28;20570;-62
2023/10/25 07:52:21;;;;;;;8.43;7.72;;;;;;;;;;5088317;28;20204;-59
2023/10/25 07:54:47;;;;;;;9.23;7.55;;;;;;;;;;5077878;28;20224;-61
2023/10/25 07:57:15;;;;;;;9.27;8.07;;;;;;;;;;5078266;28;20212;-63
2023/10/25 07:59:41;;;;;;;7.90;7.20;;;;;;;;;;5085974;28;20218;-61
2023/10/25 08:02:08;;;;;;;9.70;7.03;;;;;;;;;;5081632;28;20220;-60
2023/10/25 08:04:34;;;;;;;8.23;6.93;;;;;;;;;;5070205;28;20228;-63
2023/10/25 08:07:00;;;;;;;7.15;6.57;;;;;;;;;;5071887;28;20219;-62
2023/10/25 08:09:26;;;;;;;8.63;6.50;;;;;;;;;;5074615;28;20215;-63
2023/10/25 08:11:53;;;;;;;6.07;5.60;;;;;;;;;;5078389;28;20219;-62
2023/10/25 08:14:21;;;;;;;7.05;6.35;;;;;;;;;;5082357;28;20231;-62
2023/10/25 08:16:47;;;;;;;5.85;5.38;;;;;;;;;;5077043;28;20607;-60
2023/10/25 08:19:15;;;;;;;6.25;5.82;;;;;;;;;;5068487;28;20209;-61
2023/10/25 08:21:41;;;;;;;6.35;5.85;;;;;;;;;;5076231;28;20239;-60
2023/10/25 08:24:08;;;;;;;6.28;5.68;;;;;;;;;;5072253;28;20707;-61
2023/10/25 08:26:37;;;;;;;6.13;5.63;;;;;;;;;;5077231;28;20216;-62
2023/10/25 08:29:03;;;;;;;6.15;5.72;;;;;;;;;;5083814;28;20209;-61
2023/10/25 08:31:30;;;;;;;8.15;5.68;;;;;;;;;;5078746;28;20672;-63
2023/10/25 08:33:58;;;;;;;5.53;5.03;;;;;;;;;;5073521;28;20219;-60
2023/10/25 08:36:25;;;;;;;5.90;5.40;;;;;;;;;;5075397;28;20201;-61
2023/10/25 08:38:51;;;;;;;4.95;4.50;;;;;;;;;;5071660;28;20217;-62
2023/10/25 08:41:20;;;;;;;5.43;4.93;;;;;;;;;;5081266;28;20219;-60
2023/10/25 08:43:46;;;;;;;6.65;4.72;;;;;;;;;;5073939;28;20209;-62
2023/10/25 08:46:14;;;;;;;5.57;5.15;;;;;;;;;;5078850;28;20311;-60
2023/10/25 08:48:42;;;;;;;5.40;4.38;;;;;;;;;;5069781;28;20223;-60
2023/10/25 08:51:09;;;;;;;4.90;4.38;;;;;;;;;;5081832;28;20579;-62
2023/10/25 08:53:36;;;;;;;4.85;4.35;;;;;;;;;;5077928;28;20208;-61
2023/10/25 08:56:03;;;;;;;6.35;4.10;;;;;;;;;;5071617;28;20309;-61
2023/10/25 08:58:29;;;;;;;4.25;3.95;;;;;;;;;;5081277;28;20204;-63
2023/10/25 09:00:55;;;;;;;4.88;4.45;;;;;;;;;;5072232;28;20822;-62
2023/10/25 09:03:42;;;;;;;4.65;4.30;;;;;;;;;;5075402;28;20204;-62
2023/10/25 09:06:09;;;;;;;4.88;4.47;;;;;;;;;;5070055;28;20467;-62
2023/10/25 09:08:37;;;;;;;5.68;4.43;;;;;;;;;;5071485;28;20288;-61
2023/10/25 09:11:04;;;;;;;4.18;3.97;;;;;;;;;;5076412;28;20218;-61
2023/10/25 09:13:31;;;;;;;5.07;4.05;;;;;;;;;;5076678;28;20200;-62
2023/10/25 09:16:04;;;;;;;4.18;3.92;;;;;;;;;;5073903;28;20224;-60
2023/10/25 09:18:31;;;;;;;4.00;3.80;;;;;;;;;;5069923;28;20235;-62
2023/10/25 09:20:59;;;;;;;4.63;4.32;;;;;;;;;;5073110;28;20687;-62
2023/10/25 09:23:25;;;;;;;4.20;3.92;;;;;;;;;;5073065;28;20446;-61
2023/10/25 09:25:51;;;;;;;4.70;4.20;;;;;;;;;;5071222;28;20242;-61
2023/10/25 09:28:27;;;;;;;4.07;3.88;;;;;;;;;;5071954;28;20614;-61
2023/10/25 09:30:53;;;;;;;7.78;4.18;;;;;;;;;;5072668;28;20219;-61
2023/10/25 09:33:19;;;;;;;4.07;3.78;;;;;;;;;;5072026;28;20204;-62
2023/10/25 09:35:46;;;;;;;5.50;4.50;;;;;;;;;;5072198;28;20231;-60
2023/10/25 09:38:13;;;;;;;4.47;4.20;;;;;;;;;;5071921;28;20665;-60
2023/10/25 09:40:41;;;;;;;6.05;4.32;;;;;;;;;;5074342;28;20215;-61
2023/10/25 09:43:11;;;;;;;4.07;3.88;;;;;;;;;;5076315;28;20219;-61
2023/10/25 09:45:38;;;;;;;4.82;4.10;;;;;;;;;;5075464;28;20232;-62
2023/10/25 09:48:05;;;;;;;5.80;3.90;;;;;;;;;;5077051;28;20209;-61
2023/10/25 09:50:33;;;;;;;4.47;3.90;;;;;;;;;;5073075;28;20208;-60
2023/10/25 09:53:03;;;;;;;4.88;3.88;;;;;;;;;;5072966;28;20862;-60
2023/10/25 09:55:32;;;;;;;4.78;4.20;;;;;;;;;;5073259;28;20235;-60
2023/10/25 09:57:59;;;;;;;3.80;3.60;;;;;;;;;;5072461;28;20215;-60
2023/10/25 10:00:25;;;;;;;6.22;3.95;;;;;;;;;;5073008;28;20204;-60
2023/10/25 10:02:54;;;;;;;3.33;3.03;;;;;;;;;;5072255;28;20220;-61
2023/10/25 10:05:26;;;;;;;5.10;3.47;;;;;;;;;;5067187;28;20227;-62
2023/10/25 10:07:55;;;;;;;3.72;3.47;;;;;;;;;;5077631;28;20706;-63
2023/10/25 10:10:22;;;;;;;3.05;2.90;;;;;;;;;;5077168;28;20212;-62
2023/10/25 10:12:50;;;;;;;3.08;2.90;;;;;;;;;;5073590;28;20275;-62
2023/10/25 10:15:16;;;;;;;2.60;2.50;;;;;;;;;;5071277;28;20231;-61
2023/10/25 10:17:43;;;;;;;2.60;2.40;;;;;;;;;;5070629;28;20208;-63
2023/10/25 10:20:21;;;;;;;2.25;2.15;;;;;;;;;;5070811;28;20239;-61
2023/10/25 10:23:01;;;;;;;2.22;2.13;;;;;;;;;;5074579;28;20227;-62
2023/10/25 10:25:42;;;;;;;3.15;2.08;;;;;;;;;;5067597;28;20228;-61
2023/10/25 10:28:10;;;;;;;2.58;2.10;;;;;;;;;;5075973;28;20208;-61
2023/10/25 10:30:38;;;;;;;2.78;2.25;;;;;;;;;;5068688;28;20208;-59
2023/10/25 10:33:07;;;;;;;2.33;2.22;;;;;;;;;;5070931;28;20700;-59
2023/10/25 10:35:34;;;;;;;3.00;2.00;;;;;;;;;;5074449;28;20228;-60
2023/10/25 10:38:02;;;;;;;2.00;1.90;;;;;;;;;;5072860;28;20209;-62
2023/10/25 10:40:29;;;;;;;1.58;1.55;;;;;;;;;;5077435;28;20704;-61
2023/10/25 10:42:56;;;;;;;1.88;1.50;;;;;;;;;;5072723;28;20223;-61
2023/10/25 10:45:23;;;;;;;2.13;1.80;;;;;;;;;;5071104;28;20231;-60
2023/10/25 10:47:52;;;;;;;1.58;1.50;;;;;;;;;;5072355;28;20201;-61
2023/10/25 10:50:19;;;;;;;1.83;1.73;;;;;;;;;;5075751;28;20214;-61
2023/10/25 10:52:46;;;;;;;2.60;1.92;;;;;;;;;;5076162;28;20227;-61
2023/10/25 10:55:13;;;;;;;1.48;1.42;;;;;;;;;;5083055;28;20225;-62
2023/10/25 10:57:40;;;;;;;1.52;1.52;;;;;;;;;;5079741;28;20204;-62
2023/10/25 11:00:08;;;;;;;3.22;1.58;;;;;;;;;;5077988;28;20664;-61
2023/10/25 11:02:37;;;;;;;2.38;1.67;;;;;;;;;;5076432;28;20255;-61
2023/10/25 11:05:03;;;;;;;2.10;1.30;;;;;;;;;;5075797;28;20279;-62
2023/10/25 11:07:30;;;;;;;1.52;1.10;;;;;;;;;;5077116;28;20205;-60
2023/10/25 11:09:56;;;;;;;1.73;1.30;;;;;;;;;;5076714;28;20223;-60
2023/10/25 11:12:23;;;;;;;2.90;1.20;;;;;;;;;;5076967;28;20200;-60
2023/10/25 11:14:49;;;;;;;2.35;1.27;;;;;;;;;;5076867;28;20228;-60
2023/10/25 11:17:16;;;;;;;1.40;1.30;;;;;;;;;;5077868;28;20223;-60
2023/10/25 11:19:44;;;;;;;1.50;1.40;;;;;;;;;;5071503;28;20681;-60
2023/10/25 11:22:11;;;;;;;1.13;1.10;;;;;;;;;;5079264;28;20231;-60
2023/10/25 11:24:37;;;;;;;3.05;1.25;;;;;;;;;;5078819;28;20335;-61
2023/10/25 11:27:04;;;;;;;1.10;1.02;;;;;;;;;;5078097;28;20208;-60
2023/10/25 11:29:31;;;;;;;0.90;0.90;;;;;;;;;;5077950;28;20205;-60
2023/10/25 11:32:01;;;;;;;0.93;0.93;;;;;;;;;;5077051;28;20597;-60
2023/10/25 11:34:30;;;;;;;1.83;0.90;;;;;;;;;;5077571;28;20230;-60
2023/10/25 11:36:58;;;;;;;0.75;0.75;;;;;;;;;;5081606;28;20208;-60
2023/10/25 11:39:24;;;;;;;0.63;0.63;;;;;;;;;;5079455;28;20211;-61
2023/10/25 11:41:51;;;;;;;0.55;0.50;;;;;;;;;;5077475;28;20228;-63
2023/10/25 11:44:21;;;;;;;3.58;1.00;;;;;;;;;;5076438;28;20224;-63
2023/10/25 11:46:47;;;;;;;1.67;0.80;;;;;;;;;;5078338;28;20204;-64
2023/10/25 11:49:18;;;;;;;2.35;0.65;;;;;;;;;;5081010;28;20212;-64
2023/10/25 11:51:46;;;;;;;1.42;0.50;;;;;;;;;;5077739;28;20209;-62
2023/10/25 11:54:14;;;;;;;0.50;0.50;;;;;;;;;;5078524;28;20225;-64
2023/10/25 11:56:40;;;;;;;0.40;0.40;;;;;;;;;;5079355;28;20212;-63
2023/10/25 11:59:07;;;;;;;1.10;0.60;;;;;;;;;;5077713;28;20227;-64
2023/10/25 12:01:33;;;;;;;0.80;0.80;;;;;;;;;;5079221;28;20207;-63
2023/10/25 12:03:59;;;;;;;0.73;0.70;;;;;;;;;;5080020;28;20201;-64
2023/10/25 12:06:26;;;;;;;0.95;0.95;;;;;;;;;;5077105;28;20557;-64
2023/10/25 12:08:52;;;;;;;0.75;0.73;;;;;;;;;;5080155;28;20204;-64
2023/10/25 12:11:20;;;;;;;3.65;0.60;;;;;;;;;;5078643;28;20201;-62
2023/10/25 12:13:46;;;;;;;1.10;0.47;;;;;;;;;;5074411;28;20627;-62
2023/10/25 12:16:13;;;;;;;1.08;0.40;;;;;;;;;;5069554;28;20200;-62
2023/10/25 12:18:39;;;;;;;2.55;0.55;;;;;;;;;;5069117;28;20205;-63
2023/10/25 12:21:06;;;;;;;4.95;0.50;;;;;;;;;;5073166;28;20212;-61
2023/10/25 12:23:32;;;;;;;0.40;0.40;;;;;;;;;;5072562;28;20216;-61
2023/10/25 12:25:58;;;;;;;1.95;0.50;;;;;;;;;;5073037;28;20224;-61
2023/10/25 12:28:27;;;;;;;0.52;0.50;;;;;;;;;;5072481;28;20246;-61
2023/10/25 12:30:54;;;;;;;1.75;0.50;;;;;;;;;;5072761;28;20200;-61
2023/10/25 12:33:20;;;;;;;0.93;0.38;;;;;;;;;;5073107;28;20398;-61
2023/10/25 12:35:46;;;;;;;0.50;0.50;;;;;;;;;;5072464;28;20225;-61
2023/10/25 12:38:12;;;;;;;1.75;0.70;;;;;;;;;;5071927;28;20295;-61
2023/10/25 12:40:39;;;;;;;0.60;0.60;;;;;;;;;;5074102;28;20231;-61
2023/10/25 12:43:05;;;;;;;0.55;0.30;;;;;;;;;;5073652;28;20220;-61
2023/10/25 12:45:33;;;;;;;1.65;0.50;;;;;;;;;;5072995;28;20224;-62
2023/10/25 12:47:59;;;;;;;3.42;0.60;;;;;;;;;;5072765;28;20676;-61
2023/10/25 12:50:25;;;;;;;0.73;0.40;;;;;;;;;;5073308;28;20208;-61
2023/10/25 12:52:51;;;;;;;0.40;0.40;;;;;;;;;;5072732;28;20211;-61
2023/10/25 12:55:18;;;;;;;1.75;0.40;;;;;;;;;;5071925;28;20240;-61
2023/10/25 12:57:44;;;;;;;0.45;0.45;;;;;;;;;;5071784;28;20223;-61
2023/10/25 13:00:11;;;;;;;0.60;0.60;;;;;;;;;;5072782;28;20664;-61
2023/10/25 13:02:38;;;;;;;1.15;0.50;;;;;;;;;;5071051;28;20224;-62
2023/10/25 13:05:05;;;;;;;0.90;0.52;;;;;;;;;;5071261;28;20250;-62
2023/10/25 13:07:31;;;;;;;1.58;0.57;;;;;;;;;;5071838;28;20215;-61
2023/10/25 13:09:58;;;;;;;1.63;0.70;;;;;;;;;;5071941;28;20639;-62
2023/10/25 13:12:24;;;;;;;3.33;0.70;;;;;;;;;;5071493;28;20200;-61
2023/10/25 13:14:50;;;;;;;1.25;0.52;;;;;;;;;;5070372;28;20229;-61
2023/10/25 13:17:17;;;;;;;0.50;0.40;;;;;;;;;;5071083;28;20521;-61
2023/10/25 13:19:44;;;;;;;0.40;0.40;;;;;;;;;;5071747;28;20212;-62
2023/10/25 13:22:10;;;;;;;1.00;0.50;;;;;;;;;;5073039;28;20552;-61
2023/10/25 13:24:37;;;;;;;0.40;0.40;;;;;;;;;;5071905;28;20239;-62
2023/10/25 13:27:03;;;;;;;1.13;0.77;;;;;;;;;;5071829;28;20238;-61
2023/10/25 13:29:30;;;;;;;0.70;0.70;;;;;;;;;;5071218;28;20205;-61
2023/10/25 13:31:56;;;;;;;0.80;0.80;;;;;;;;;;5071797;28;20696;-61
2023/10/25 13:34:23;;;;;;;2.45;0.50;;;;;;;;;;5070430;28;20213;-62
2023/10/25 13:36:50;;;;;;;1.73;0.60;;;;;;;;;;5070892;28;20290;-62
2023/10/25 13:39:16;;;;;;;0.50;0.50;;;;;;;;;;5070398;28;20221;-63
2023/10/25 13:41:43;;;;;;;0.68;0.68;;;;;;;;;;5071009;28;20216;-64
2023/10/25 13:44:10;;;;;;;0.50;0.50;;;;;;;;;;5071941;28;20701;-62
2023/10/25 13:46:36;;;;;;;0.65;0.45;;;;;;;;;;5071874;28;20233;-64
2023/10/25 13:49:02;;;;;;;2.90;0.35;;;;;;;;;;5070737;28;20219;-63
2023/10/25 13:51:28;;;;;;;1.40;0.60;;;;;;;;;;5069144;28;20212;-62
2023/10/25 13:53:56;;;;;;;1.95;0.40;;;;;;;;;;5075692;28;20204;-63
2023/10/25 13:56:22;;;;;;;0.40;0.40;;;;;;;;;;5074403;28;20719;-62
2023/10/25 13:58:49;;;;;;;2.13;0.50;;;;;;;;;;5070714;28;20204;-62
2023/10/25 14:01:15;;;;;;;0.40;0.40;;;;;;;;;;5063587;28;20215;-62
2023/10/25 14:03:41;;;;;;;0.40;0.40;;;;;;;;;;5072593;28;20747;-64
2023/10/25 14:06:09;;;;;;;0.30;0.30;;;;;;;;;;5070950;28;20215;-65
2023/10/25 14:08:35;;;;;;;1.42;0.80;;;;;;;;;;5073497;28;20212;-65
2023/10/25 14:11:04;;;;;;;0.90;0.90;;;;;;;;;;5068608;28;20210;-65
2023/10/25 14:13:31;;;;;;;0.77;0.60;;;;;;;;;;5072431;28;20196;-63
2023/10/25 14:15:57;;;;;;;0.82;0.50;;;;;;;;;;5073424;28;20288;-62
2023/10/25 14:18:23;;;;;;;0.68;0.68;;;;;;;;;;5072588;28;20230;-62
2023/10/25 14:20:50;;;;;;;2.58;0.70;;;;;;;;;;5075517;28;20920;-62
2023/10/25 14:23:16;;;;;;;2.60;0.73;;;;;;;;;;5075286;28;20220;-60
2023/10/25 14:25:43;;;;;;;0.80;0.55;;;;;;;;;;5074130;28;20231;-60
2023/10/25 14:28:11;;;;;;;0.63;0.50;;;;;;;;;;5076849;28;20208;-62
2023/10/25 14:30:38;;;;;;;1.23;0.40;;;;;;;;;;5077549;28;20212;-61
2023/10/25 14:33:05;;;;;;;0.57;0.50;;;;;;;;;;5071640;28;20232;-61
2023/10/25 14:35:32;;;;;;;1.27;0.30;;;;;;;;;;5076179;28;20532;-62
2023/10/25 14:37:59;;;;;;;1.35;0.40;;;;;;;;;;5077364;28;20230;-61
2023/10/25 14:40:25;;;;;;;0.55;0.30;;;;;;;;;;5079464;28;20211;-60